createdAt,value
2023-03-19T00:00:32.805Z,97147.53
2023-03-19T00:03:01.229Z,97151.06
2023-03-19T00:05:29.404Z,97150.22
2023-03-19T00:07:57.526Z,97151.19
2023-03-19T00:10:25.577Z,97154.81
2023-03-19T00:12:53.763Z,97152.25
2023-03-19T00:15:22.096Z,97152.34
2023-03-19T00:17:51.640Z,97147.91
2023-03-19T00:20:20.434Z,97145.22
2023-03-19T00:22:48.576Z,97146.22
2023-03-19T00:25:16.728Z,97143.53
2023-03-19T00:27:44.877Z,97150.72
2023-03-19T00:30:13.886Z,97140.94
2023-03-19T00:32:42.209Z,97141.78
2023-03-19T00:35:12.231Z,97135.59
2023-03-19T00:37:41.163Z,97134.72
2023-03-19T00:40:10.841Z,97132.97
2023-03-19T00:42:39.047Z,97134.81
2023-03-19T00:45:08.369Z,97132.13
2023-03-19T00:47:36.531Z,97129.53
2023-03-19T00:50:05.182Z,97127.81
2023-03-19T00:52:35.604Z,97129.53
2023-03-19T00:55:03.841Z,97133.09
2023-03-19T00:57:32.200Z,97132.22
2023-03-19T01:00:00.632Z,97128.69
2023-03-19T01:02:28.818Z,97132.34
2023-03-19T01:04:56.914Z,97118.03
2023-03-19T01:07:25.028Z,97108.28
2023-03-19T01:09:54.519Z,97116.34
2023-03-19T01:12:22.631Z,97116.44
2023-03-19T01:14:50.866Z,97122.66
2023-03-19T01:17:18.999Z,97123.63
2023-03-19T01:19:47.535Z,97112.91
2023-03-19T01:22:16.777Z,97103.09
2023-03-19T01:24:49.631Z,97105.78
2023-03-19T01:27:19.381Z,97117.50
2023-03-19T01:29:47.471Z,97115.78
2023-03-19T01:32:21.635Z,97101.50
2023-03-19T01:35:15.823Z,97106.88
2023-03-19T01:37:44.030Z,97107.84
2023-03-19T01:40:13.968Z,97106.00
2023-03-19T01:43:12.613Z,97112.34
2023-03-19T01:45:48.944Z,97105.38
2023-03-19T01:48:48.086Z,97113.31
2023-03-19T01:51:20.031Z,97102.56
2023-03-19T01:53:59.580Z,97092.78
2023-03-19T01:56:38.982Z,97100.84
2023-03-19T01:59:16.053Z,97104.38
2023-03-19T02:02:04.660Z,97114.25
2023-03-19T02:04:33.138Z,97107.19
2023-03-19T02:07:01.261Z,97115.25
2023-03-19T02:09:30.140Z,97113.44
2023-03-19T02:11:58.210Z,97101.06
2023-03-19T02:14:27.719Z,97101.06
2023-03-19T02:16:55.984Z,97099.25
2023-03-19T02:19:29.793Z,97108.13
2023-03-19T02:21:57.899Z,97104.63
2023-03-19T02:24:27.703Z,97109.97
2023-03-19T02:27:06.130Z,97097.50
2023-03-19T02:29:34.243Z,97093.88
2023-03-19T02:32:03.693Z,97104.81
2023-03-19T02:34:36.905Z,97101.25
2023-03-19T02:37:08.359Z,97105.78
2023-03-19T02:39:39.863Z,97087.00
2023-03-19T02:42:09.648Z,97103.19
2023-03-19T02:44:37.728Z,97112.97
2023-03-19T02:47:06.308Z,97108.47
2023-03-19T02:49:34.428Z,97105.03
2023-03-19T02:52:02.572Z,97102.25
2023-03-19T02:54:30.775Z,97101.38
2023-03-19T02:56:58.971Z,97098.78
2023-03-19T02:59:28.539Z,97100.50
2023-03-19T03:01:56.710Z,97097.06
2023-03-19T03:04:25.045Z,97094.28
2023-03-19T03:06:54.060Z,97095.34
2023-03-19T03:09:22.654Z,97098.91
2023-03-19T03:11:51.124Z,97094.38
2023-03-19T03:14:19.293Z,97103.41
2023-03-19T03:16:48.892Z,97105.22
2023-03-19T03:19:17.045Z,97100.84
2023-03-19T03:21:45.137Z,97104.34
2023-03-19T03:24:13.200Z,97103.41
2023-03-19T03:26:41.844Z,97100.84
2023-03-19T03:29:09.944Z,97101.69
2023-03-19T03:31:38.136Z,97106.09
2023-03-19T03:34:07.990Z,97097.16
2023-03-19T03:36:36.937Z,97100.91
2023-03-19T03:39:05.265Z,97099.97
2023-03-19T03:41:33.457Z,97103.53
2023-03-19T03:44:02.393Z,97093.72
2023-03-19T03:46:33.107Z,97100.09
2023-03-19T03:49:02.300Z,97092.09
2023-03-19T03:51:31.873Z,97096.66
2023-03-19T03:54:00.002Z,97090.41
2023-03-19T03:56:28.140Z,97095.78
2023-03-19T03:58:56.584Z,97091.34
2023-03-19T04:01:24.732Z,97084.16
2023-03-19T04:03:56.668Z,97085.97
2023-03-19T04:06:25.092Z,97085.97
2023-03-19T04:09:13.074Z,97091.34
2023-03-19T04:11:42.314Z,97093.19
2023-03-19T04:14:10.754Z,97086.09
2023-03-19T04:16:40.473Z,97094.16
2023-03-19T04:19:08.801Z,97093.19
2023-03-19T04:21:36.943Z,97093.19
2023-03-19T04:24:05.648Z,97084.28
2023-03-19T04:26:35.144Z,97087.06
2023-03-19T04:29:03.372Z,97088.91
2023-03-19T04:31:31.547Z,97090.59
2023-03-19T04:34:00.379Z,97087.91
2023-03-19T04:36:28.696Z,97086.09
2023-03-19T04:38:57.004Z,97090.59
2023-03-19T04:41:26.092Z,97095.97
2023-03-19T04:44:27.969Z,97085.22
2023-03-19T04:46:56.606Z,97087.06
2023-03-19T04:49:26.029Z,97081.72
2023-03-19T04:51:56.888Z,97078.16
2023-03-19T04:54:25.371Z,97079.97
2023-03-19T04:56:54.361Z,97085.34
2023-03-19T04:59:25.085Z,97086.22
2023-03-19T05:01:54.658Z,97078.16
2023-03-19T05:04:25.070Z,97079.97
2023-03-19T05:06:57.452Z,97083.53
2023-03-19T05:09:26.202Z,97079.97
2023-03-19T05:11:54.330Z,97090.72
2023-03-19T05:14:23.816Z,97099.75
2023-03-19T05:17:19.624Z,97091.78
2023-03-19T05:20:01.560Z,97103.25
2023-03-19T05:22:32.187Z,97089.09
2023-03-19T05:25:00.905Z,97085.56
2023-03-19T05:27:30.510Z,97094.44
2023-03-19T05:30:06.624Z,97094.44
2023-03-19T05:32:53.144Z,97094.38
2023-03-19T05:35:35.686Z,97101.56
2023-03-19T05:38:06.427Z,97092.63
2023-03-19T05:40:36.130Z,97096.31
2023-03-19T05:43:17.942Z,97106.06
2023-03-19T05:45:51.558Z,97108.84
2023-03-19T05:48:25.060Z,97099.81
2023-03-19T05:50:54.018Z,97109.72
2023-03-19T05:53:24.610Z,97102.63
2023-03-19T05:56:28.201Z,97106.16
2023-03-19T05:59:25.914Z,97103.47
2023-03-19T06:02:06.824Z,97107.97
2023-03-19T06:04:36.967Z,97115.16
2023-03-19T06:07:05.547Z,97107.13
2023-03-19T06:09:33.942Z,97118.59
2023-03-19T06:12:02.386Z,97120.34
2023-03-19T06:14:56.758Z,97108.75
2023-03-19T06:17:44.771Z,97114.09
2023-03-19T06:20:17.892Z,97114.00
2023-03-19T06:22:46.833Z,97109.38
2023-03-19T06:25:15.152Z,97108.56
2023-03-19T06:27:43.699Z,97107.56
2023-03-19T06:30:25.656Z,97121.00
2023-03-19T06:32:54.875Z,97108.44
2023-03-19T06:35:25.237Z,97109.31
2023-03-19T06:37:54.465Z,97116.38
2023-03-19T06:40:22.963Z,97112.00
2023-03-19T06:42:51.179Z,97108.31
2023-03-19T06:45:20.328Z,97107.38
2023-03-19T06:47:48.505Z,97108.22
2023-03-19T06:50:16.886Z,97098.34
2023-03-19T06:52:46.746Z,97110.72
2023-03-19T06:55:14.853Z,97103.53
2023-03-19T06:57:42.975Z,97102.53
2023-03-19T07:00:13.160Z,97103.41
2023-03-19T07:02:41.346Z,97099.75
2023-03-19T07:05:09.988Z,97103.09
2023-03-19T07:07:38.157Z,97096.88
2023-03-19T07:10:08.750Z,97100.31
2023-03-19T07:12:36.892Z,97100.31
2023-03-19T07:15:05.613Z,97102.88
2023-03-19T07:17:33.738Z,97100.19
2023-03-19T07:20:01.797Z,97095.56
2023-03-19T07:22:29.953Z,97103.63
2023-03-19T07:24:58.005Z,97100.94
2023-03-19T07:27:27.672Z,97107.19
2023-03-19T07:29:56.302Z,97101.94
2023-03-19T07:32:24.534Z,97105.44
2023-03-19T07:34:52.601Z,97102.88
2023-03-19T07:37:22.602Z,97099.44
2023-03-19T07:39:50.875Z,97106.53
2023-03-19T07:42:19.037Z,97103.75
2023-03-19T07:44:48.557Z,97098.38
2023-03-19T07:47:28.456Z,97102.75
2023-03-19T07:49:57.441Z,97096.56
2023-03-19T07:52:25.973Z,97093.88
2023-03-19T07:54:54.242Z,97100.19
2023-03-19T07:57:22.710Z,97102.00
2023-03-19T07:59:52.205Z,97098.38
2023-03-19T08:02:22.800Z,97100.09
2023-03-19T08:04:51.665Z,97103.63
2023-03-19T08:07:20.281Z,97099.13
2023-03-19T08:09:48.382Z,97097.41
2023-03-19T08:12:16.635Z,97097.50
2023-03-19T08:14:44.683Z,97087.63
2023-03-19T08:17:14.296Z,97088.50
2023-03-19T08:19:42.419Z,97079.47
2023-03-19T08:22:10.812Z,97089.34
2023-03-19T08:24:38.882Z,97091.06
2023-03-19T08:27:07.918Z,97092.03
2023-03-19T08:29:36.665Z,97098.38
2023-03-19T08:32:04.912Z,97093.00
2023-03-19T08:34:34.390Z,97083.97
2023-03-19T08:37:02.532Z,97079.59
2023-03-19T08:39:30.622Z,97089.34
2023-03-19T08:41:58.836Z,97079.59
2023-03-19T08:44:26.923Z,97081.41
2023-03-19T08:46:55.572Z,97081.28
2023-03-19T08:49:23.717Z,97092.03
2023-03-19T08:51:53.241Z,97075.91
2023-03-19T08:54:22.897Z,97078.59
2023-03-19T08:56:51.396Z,97091.94
2023-03-19T08:59:19.472Z,97084.72
2023-03-19T09:01:51.840Z,97094.41
2023-03-19T09:04:20.025Z,97087.97
2023-03-19T09:06:51.181Z,97081.72
2023-03-19T09:09:21.005Z,97084.31
2023-03-19T09:11:49.239Z,97077.97
2023-03-19T09:14:19.916Z,97078.84
2023-03-19T09:16:48.128Z,97077.00
2023-03-19T09:19:16.237Z,97079.59
2023-03-19T09:21:44.881Z,97073.25
2023-03-19T09:24:12.929Z,97072.38
2023-03-19T09:26:42.472Z,97068.75
2023-03-19T09:29:10.717Z,97068.75
2023-03-19T09:31:38.927Z,97071.44
2023-03-19T09:34:07.250Z,97063.38
2023-03-19T09:36:35.694Z,97069.63
2023-03-19T09:39:04.517Z,97066.81
2023-03-19T09:41:35.799Z,97059.63
2023-03-19T09:44:05.523Z,97058.66
2023-03-19T09:46:40.014Z,97056.84
2023-03-19T09:49:13.948Z,97057.69
2023-03-19T09:51:45.188Z,97058.44
2023-03-19T09:54:38.209Z,97053.91
2023-03-19T09:57:06.376Z,97059.19
2023-03-19T09:59:36.027Z,97056.50
2023-03-19T10:02:18.282Z,97059.13
2023-03-19T10:04:50.418Z,97055.44
2023-03-19T10:07:28.453Z,97051.81
2023-03-19T10:10:02.901Z,97062.56
2023-03-19T10:12:40.122Z,97052.56
2023-03-19T10:15:17.374Z,97049.88
2023-03-19T10:17:50.558Z,97047.19
2023-03-19T10:20:21.570Z,97033.75
2023-03-19T10:22:51.559Z,97042.69
2023-03-19T10:25:21.309Z,97038.16
2023-03-19T10:27:52.175Z,97030.09
2023-03-19T10:30:22.188Z,97026.66
2023-03-19T10:32:53.067Z,97025.81
2023-03-19T10:35:23.134Z,97027.75
2023-03-19T10:37:51.963Z,97026.97
2023-03-19T10:40:23.648Z,97023.53
2023-03-19T10:43:02.993Z,97018.16
2023-03-19T10:45:33.963Z,97023.63
2023-03-19T10:48:03.002Z,97023.72
2023-03-19T10:50:33.183Z,97021.91
2023-03-19T10:53:05.644Z,97024.50
2023-03-19T10:55:34.201Z,97026.09
2023-03-19T10:58:06.907Z,97022.44
2023-03-19T11:00:36.556Z,97016.16
2023-03-19T11:03:05.600Z,97015.06
2023-03-19T11:05:34.863Z,97010.47
2023-03-19T11:08:04.129Z,97009.47
2023-03-19T11:10:33.409Z,97003.16
2023-03-19T11:13:01.958Z,96997.66
2023-03-19T11:15:34.183Z,96996.69
2023-03-19T11:18:07.864Z,97000.22
2023-03-19T11:20:37.197Z,97005.59
2023-03-19T11:23:12.211Z,97001.09
2023-03-19T11:25:41.736Z,96992.06
2023-03-19T11:28:11.197Z,96992.06
2023-03-19T11:30:43.225Z,96985.84
2023-03-19T11:33:21.070Z,96993.91
2023-03-19T11:35:51.996Z,96993.91
2023-03-19T11:38:23.098Z,96995.72
2023-03-19T11:40:53.714Z,96991.22
2023-03-19T11:43:45.650Z,96980.47
2023-03-19T11:46:21.671Z,96975.94
2023-03-19T11:49:10.374Z,96970.56
2023-03-19T11:51:40.158Z,96968.75
2023-03-19T11:54:11.919Z,96964.25
2023-03-19T11:56:43.358Z,96966.94
2023-03-19T11:59:19.352Z,96964.97
2023-03-19T12:02:18.242Z,96957.88
2023-03-19T12:05:11.543Z,96959.63
2023-03-19T12:07:42.549Z,96957.69
2023-03-19T12:10:26.537Z,96955.09
2023-03-19T12:12:57.651Z,96957.88
2023-03-19T12:15:27.320Z,96950.81
2023-03-19T12:18:01.039Z,96952.75
2023-03-19T12:20:39.499Z,96950.19
2023-03-19T12:23:08.963Z,96952.00
2023-03-19T12:25:43.296Z,96950.25
2023-03-19T12:28:14.667Z,96950.25
2023-03-19T12:30:43.541Z,96954.69
2023-03-19T12:33:30.552Z,96951.00
2023-03-19T12:36:00.371Z,96950.25
2023-03-19T12:38:36.804Z,96955.56
2023-03-19T12:41:07.825Z,96954.56
2023-03-19T12:43:40.113Z,96958.97
2023-03-19T12:46:10.565Z,96969.59
2023-03-19T12:48:42.642Z,96968.63
2023-03-19T12:51:13.756Z,96959.63
2023-03-19T12:53:45.648Z,96957.88
2023-03-19T12:56:15.947Z,96951.56
2023-03-19T12:58:50.920Z,96952.50
2023-03-19T13:01:22.321Z,96954.34
2023-03-19T13:03:54.082Z,96961.56
2023-03-19T13:06:24.964Z,96959.72
2023-03-19T13:08:54.586Z,96954.25
2023-03-19T13:11:39.950Z,96944.44
2023-03-19T13:14:12.266Z,96950.69
2023-03-19T13:16:42.724Z,96950.69
2023-03-19T13:19:15.906Z,96944.44
2023-03-19T13:21:46.584Z,96941.75
2023-03-19T13:24:19.305Z,96944.38
2023-03-19T13:26:47.456Z,96937.25
2023-03-19T13:29:18.776Z,96937.25
2023-03-19T13:31:47.536Z,96934.56
2023-03-19T13:34:23.485Z,96936.38
2023-03-19T13:36:55.902Z,96944.44
2023-03-19T13:39:27.376Z,96939.19
2023-03-19T13:41:59.806Z,96940.94
2023-03-19T13:44:35.931Z,96938.25
2023-03-19T13:47:04.423Z,96938.25
2023-03-19T13:49:35.834Z,96933.81
2023-03-19T13:52:48.188Z,96944.56
2023-03-19T13:55:34.912Z,96941.88
2023-03-19T13:58:38.240Z,96942.75
2023-03-19T14:01:07.469Z,96944.56
2023-03-19T14:03:36.137Z,96934.69
2023-03-19T14:06:05.866Z,96930.28
2023-03-19T14:08:42.845Z,96927.59
2023-03-19T14:11:11.014Z,96937.50
2023-03-19T14:13:39.740Z,96935.66
2023-03-19T14:16:09.712Z,96940.19
2023-03-19T14:18:41.075Z,96936.63
2023-03-19T14:21:12.986Z,96934.81
2023-03-19T14:23:46.340Z,96933.06
2023-03-19T14:26:17.992Z,96940.28
2023-03-19T14:28:54.786Z,96934.91
2023-03-19T14:31:31.288Z,96942.13
2023-03-19T14:34:16.587Z,96943.94
2023-03-19T14:36:47.116Z,96936.75
2023-03-19T14:39:21.646Z,96939.44
2023-03-19T14:41:51.777Z,96940.38
2023-03-19T14:44:45.305Z,96943.06
2023-03-19T14:47:27.503Z,96944.88
2023-03-19T14:50:13.526Z,96946.75
2023-03-19T14:52:41.948Z,96943.19
2023-03-19T14:55:12.264Z,96938.69
2023-03-19T14:57:40.468Z,96945.88
2023-03-19T15:00:14.331Z,96950.38
2023-03-19T15:02:43.041Z,96949.44
2023-03-19T15:05:14.420Z,96952.19
2023-03-19T15:07:45.019Z,96946.81
2023-03-19T15:10:17.572Z,96950.38
2023-03-19T15:13:20.953Z,96960.25
2023-03-19T15:16:04.079Z,96955.00
2023-03-19T15:18:32.275Z,96957.69
2023-03-19T15:21:00.514Z,96958.56
2023-03-19T15:23:29.359Z,96962.19
2023-03-19T15:26:01.227Z,96964.03
2023-03-19T15:28:30.157Z,96963.19
2023-03-19T15:31:10.294Z,96962.31
2023-03-19T15:33:46.930Z,96957.81
2023-03-19T15:36:17.461Z,96962.31
2023-03-19T15:38:47.375Z,96959.63
2023-03-19T15:41:16.997Z,96956.06
2023-03-19T15:43:45.218Z,96963.31
2023-03-19T15:46:16.039Z,96960.63
2023-03-19T15:48:45.095Z,96962.44
2023-03-19T15:51:13.204Z,96966.94
2023-03-19T15:53:41.485Z,96971.41
2023-03-19T15:56:09.738Z,96974.09
2023-03-19T15:58:41.225Z,96969.72
2023-03-19T16:01:10.219Z,96975.94
2023-03-19T16:03:39.296Z,96975.06
2023-03-19T16:06:08.502Z,96968.84
2023-03-19T16:08:36.606Z,96973.34
2023-03-19T16:11:15.588Z,96974.31
2023-03-19T16:13:47.926Z,96983.25
2023-03-19T16:16:18.614Z,96984.19
2023-03-19T16:18:51.424Z,96982.38
2023-03-19T16:21:20.700Z,96994.94
2023-03-19T16:23:53.056Z,96988.72
2023-03-19T16:26:23.363Z,96995.81
2023-03-19T16:29:19.024Z,96994.06
2023-03-19T16:31:51.799Z,96995.94
2023-03-19T16:34:32.639Z,96998.63
2023-03-19T16:37:01.150Z,97000.44
2023-03-19T16:39:34.543Z,97007.63
2023-03-19T16:42:16.595Z,97015.69
2023-03-19T16:44:47.869Z,97011.28
2023-03-19T16:47:16.594Z,97010.31
2023-03-19T16:49:44.737Z,97012.13
2023-03-19T16:52:15.919Z,97024.72
2023-03-19T16:54:44.146Z,97025.66
2023-03-19T16:57:12.848Z,97024.72
2023-03-19T16:59:40.988Z,97036.41
2023-03-19T17:02:13.562Z,97038.16
2023-03-19T17:04:42.029Z,97042.66
2023-03-19T17:07:10.182Z,97035.03
2023-03-19T17:09:38.300Z,97039.63
2023-03-19T17:12:07.894Z,97039.75
2023-03-19T17:14:36.186Z,97043.50
2023-03-19T17:17:04.311Z,97042.63
2023-03-19T17:19:35.963Z,97052.50
2023-03-19T17:22:04.329Z,97055.19
2023-03-19T17:24:33.389Z,97055.19
2023-03-19T17:27:02.355Z,97057.88
2023-03-19T17:29:30.819Z,97057.88
2023-03-19T17:32:01.584Z,97054.44
2023-03-19T17:34:31.938Z,97059.06
2023-03-19T17:37:02.052Z,97065.28
2023-03-19T17:39:31.526Z,97071.53
2023-03-19T17:41:59.667Z,97065.19
2023-03-19T17:44:28.003Z,97068.72
2023-03-19T17:46:56.219Z,97057.13
2023-03-19T17:49:26.249Z,97065.75
2023-03-19T17:51:54.427Z,97065.50
2023-03-19T17:54:26.709Z,97068.09
2023-03-19T17:56:55.041Z,97068.88
2023-03-19T17:59:23.250Z,97068.09
2023-03-19T18:01:52.202Z,97066.50
2023-03-19T18:04:21.451Z,97070.69
2023-03-19T18:06:50.799Z,97074.88
2023-03-19T18:09:20.492Z,97078.19
2023-03-19T18:11:49.980Z,97080.69
2023-03-19T18:14:18.132Z,97082.31
2023-03-19T18:16:46.426Z,97083.06
2023-03-19T18:19:19.781Z,97085.56
2023-03-19T18:21:47.938Z,97091.69
2023-03-19T18:24:16.266Z,97083.63
2023-03-19T18:26:44.367Z,97093.59
2023-03-19T18:29:13.863Z,97091.88
2023-03-19T18:31:42.121Z,97092.00
2023-03-19T18:34:10.224Z,97096.50
2023-03-19T18:36:38.294Z,97099.28
2023-03-19T18:39:07.942Z,97100.16
2023-03-19T18:41:36.096Z,97104.66
2023-03-19T18:44:07.416Z,97103.78
2023-03-19T18:46:37.737Z,97100.16
2023-03-19T18:49:07.563Z,97110.91
2023-03-19T18:51:36.644Z,97110.03
2023-03-19T18:54:04.956Z,97115.28
2023-03-19T18:56:34.574Z,97116.16
2023-03-19T18:59:02.723Z,97117.03
2023-03-19T19:01:30.969Z,97121.53
2023-03-19T19:04:00.975Z,97115.22
2023-03-19T19:06:46.520Z,97123.28
2023-03-19T19:09:15.774Z,97120.66
2023-03-19T19:11:44.453Z,97122.50
2023-03-19T19:14:14.605Z,97122.50
2023-03-19T19:16:42.775Z,97134.09
2023-03-19T19:19:17.221Z,97130.56
2023-03-19T19:21:48.140Z,97135.06
2023-03-19T19:24:17.703Z,97130.66
2023-03-19T19:26:45.882Z,97129.72
2023-03-19T19:29:18.623Z,97137.75
2023-03-19T19:31:46.781Z,97139.59
2023-03-19T19:34:17.113Z,97140.56
2023-03-19T19:36:45.371Z,97139.69
2023-03-19T19:39:13.492Z,97137.91
2023-03-19T19:41:43.803Z,97144.19
2023-03-19T19:44:15.404Z,97141.50
2023-03-19T19:46:43.541Z,97147.84
2023-03-19T19:49:13.473Z,97152.25
2023-03-19T19:51:42.957Z,97139.78
2023-03-19T19:54:11.015Z,97144.28
2023-03-19T19:56:39.311Z,97140.72
2023-03-19T19:59:07.764Z,97141.59
2023-03-19T20:01:36.246Z,97145.22
2023-03-19T20:04:05.554Z,97146.97
2023-03-19T20:06:33.757Z,97143.28
2023-03-19T20:09:03.271Z,97144.28
2023-03-19T20:11:32.161Z,97144.28
2023-03-19T20:14:02.341Z,97144.28
2023-03-19T20:16:30.502Z,97140.72
2023-03-19T20:18:58.699Z,97139.84
2023-03-19T20:21:29.075Z,97139.84
2023-03-19T20:23:58.915Z,97142.53
2023-03-19T20:26:30.411Z,97146.22
2023-03-19T20:28:58.595Z,97144.38
2023-03-19T20:31:27.926Z,97146.22
2023-03-19T20:33:56.108Z,97146.22
2023-03-19T20:36:24.158Z,97146.22
2023-03-19T20:38:52.660Z,97148.91
2023-03-19T20:41:21.369Z,97155.97
2023-03-19T20:43:50.947Z,97150.59
2023-03-19T20:46:20.339Z,97144.38
2023-03-19T20:48:49.070Z,97148.91
2023-03-19T20:51:19.516Z,97151.56
2023-03-19T20:53:48.458Z,97166.81
2023-03-19T20:56:17.527Z,97164.13
2023-03-19T20:58:45.896Z,97165.88
2023-03-19T21:01:15.562Z,97176.63
2023-03-19T21:03:43.883Z,97176.63
2023-03-19T21:06:14.738Z,97173.94
2023-03-19T21:08:43.587Z,97170.38
2023-03-19T21:11:14.267Z,97176.63
2023-03-19T21:13:42.552Z,97180.25
2023-03-19T21:16:15.436Z,97177.56
2023-03-19T21:18:43.621Z,97181.13
2023-03-19T21:21:12.115Z,97182.00
2023-03-19T21:23:40.420Z,97177.56
2023-03-19T21:26:10.047Z,97179.31
2023-03-19T21:28:38.746Z,97172.19
2023-03-19T21:31:07.635Z,97173.06
2023-03-19T21:33:37.249Z,97167.69
2023-03-19T21:36:06.491Z,97159.63
2023-03-19T21:38:34.712Z,97162.31
2023-03-19T21:41:04.046Z,97165.88
2023-03-19T21:43:34.733Z,97165.00
2023-03-19T21:46:17.406Z,97172.19
2023-03-19T21:48:52.652Z,97169.50
2023-03-19T21:51:20.801Z,97171.31
2023-03-19T21:53:49.341Z,97165.97
2023-03-19T21:56:21.306Z,97165.00
2023-03-19T21:58:49.504Z,97168.63
2023-03-19T22:01:19.233Z,97167.81
2023-03-19T22:03:47.537Z,97174.88
2023-03-19T22:06:17.101Z,97174.88
2023-03-19T22:08:48.296Z,97172.19
2023-03-19T22:11:18.078Z,97170.50
2023-03-19T22:13:46.272Z,97174.00
2023-03-19T22:16:18.845Z,97179.38
2023-03-19T22:18:47.219Z,97180.38
2023-03-19T22:21:18.634Z,97174.13
2023-03-19T22:23:46.973Z,97179.50
2023-03-19T22:26:29.676Z,97182.19
2023-03-19T22:28:58.810Z,97184.88
2023-03-19T22:31:27.073Z,97181.31
2023-03-19T22:33:55.402Z,97181.31
2023-03-19T22:36:24.884Z,97184.97
2023-03-19T22:38:53.036Z,97193.03
2023-03-19T22:41:24.456Z,97190.47
2023-03-19T22:43:52.642Z,97191.28
2023-03-19T22:46:20.775Z,97189.59
2023-03-19T22:48:50.100Z,97186.91
2023-03-19T22:51:19.013Z,97184.34
2023-03-19T22:53:49.926Z,97178.97
2023-03-19T22:56:18.060Z,97187.97
2023-03-19T22:58:46.852Z,97179.03
2023-03-19T23:01:29.143Z,97181.72
2023-03-19T23:03:57.489Z,97182.72
2023-03-19T23:06:30.506Z,97183.66
2023-03-19T23:09:00.491Z,97184.53
2023-03-19T23:11:28.622Z,97189.03
2023-03-19T23:13:56.907Z,97186.34
2023-03-19T23:16:25.532Z,97186.34
2023-03-19T23:21:21.658Z,97184.63
2023-03-19T23:23:52.322Z,97180.22
2023-03-19T23:26:26.814Z,97190.13
2023-03-19T23:28:55.099Z,97190.97
2023-03-19T23:31:23.167Z,97189.25
2023-03-19T23:33:51.304Z,97191.94
2023-03-19T23:36:19.409Z,97187.50
2023-03-19T23:38:47.809Z,97190.19
2023-03-19T23:41:20.559Z,97192.03
2023-03-19T23:43:50.087Z,97184.94
2023-03-19T23:46:18.248Z,97187.63
2023-03-19T23:48:46.472Z,97185.91
2023-03-19T23:51:15.105Z,97190.31
2023-03-19T23:53:43.312Z,97186.88
2023-03-19T23:56:17.729Z,97197.59
2023-03-19T23:58:45.869Z,97202.09
